createdAt,value
2022-10-18T00:00:43.585Z,2.30
2022-10-18T00:05:46.948Z,2.27
2022-10-18T00:10:50.089Z,2.18
2022-10-18T00:15:59.317Z,2.39
2022-10-18T00:21:07.494Z,2.39
2022-10-18T00:26:27.356Z,2.29
2022-10-18T00:31:36.442Z,2.19
2022-10-18T00:36:38.666Z,2.09
2022-10-18T00:41:40.920Z,2.00
2022-10-18T00:46:49.322Z,2.07
2022-10-18T00:51:58.469Z,2.02
2022-10-18T00:57:01.489Z,2.10
2022-10-18T01:02:04.705Z,1.95
2022-10-18T01:07:25.693Z,2.07
2022-10-18T01:12:43.057Z,1.87
2022-10-18T01:17:59.045Z,1.60
2022-10-18T01:23:12.083Z,1.62
2022-10-18T01:28:23.457Z,1.88
2022-10-18T01:33:52.383Z,1.50
2022-10-18T01:38:59.062Z,1.59
2022-10-18T01:44:04.954Z,1.80
2022-10-18T01:49:07.695Z,1.84
2022-10-18T01:54:13.251Z,1.56
2022-10-18T01:59:53.180Z,1.77
2022-10-18T02:05:04.611Z,1.75
2022-10-18T02:15:24.172Z,1.53
2022-10-18T02:20:29.214Z,1.11
2022-10-18T02:25:35.413Z,1.30
2022-10-18T02:30:45.727Z,1.62
2022-10-18T02:35:52.567Z,1.41
2022-10-18T02:40:55.483Z,1.38
2022-10-18T02:45:57.758Z,1.13
2022-10-18T02:50:59.958Z,1.35
2022-10-18T02:56:03.719Z,1.33
2022-10-18T03:01:06.021Z,1.18
2022-10-18T03:06:08.134Z,1.04
2022-10-18T03:11:10.472Z,1.24
2022-10-18T03:16:13.969Z,1.26
2022-10-18T03:21:16.295Z,0.98
2022-10-18T03:26:18.358Z,1.34
2022-10-18T03:31:22.774Z,1.29
2022-10-18T03:36:24.934Z,1.47
2022-10-18T03:41:27.217Z,1.42
2022-10-18T03:46:29.319Z,1.35
2022-10-18T03:51:31.573Z,1.34
2022-10-18T03:56:33.855Z,1.33
2022-10-18T04:01:36.054Z,0.89
2022-10-18T04:06:38.176Z,0.86
2022-10-18T04:11:40.550Z,0.84
2022-10-18T04:16:42.698Z,1.18
2022-10-18T04:21:44.945Z,1.13
2022-10-18T04:26:47.223Z,1.21
2022-10-18T04:31:49.595Z,1.04
2022-10-18T04:36:51.944Z,1.19
2022-10-18T04:41:54.294Z,1.32
2022-10-18T04:46:56.577Z,1.24
2022-10-18T04:51:58.743Z,1.53
2022-10-18T04:57:00.943Z,1.29
2022-10-18T05:07:06.988Z,1.16
2022-10-18T05:12:09.438Z,1.58
2022-10-18T05:17:12.045Z,1.52
2022-10-18T05:22:14.428Z,1.50
2022-10-18T05:27:16.591Z,1.45
2022-10-18T05:32:18.930Z,1.80
2022-10-18T05:37:26.099Z,1.41
2022-10-18T05:42:30.999Z,1.52
2022-10-18T05:52:36.072Z,1.45
2022-10-18T05:57:38.215Z,1.29
2022-10-18T06:02:40.445Z,2.12
2022-10-18T06:07:43.149Z,2.07
2022-10-18T06:12:45.530Z,2.46
2022-10-18T06:17:47.862Z,2.68
2022-10-18T06:22:53.574Z,3.00
2022-10-18T06:27:55.782Z,8.55
2022-10-18T06:33:01.601Z,17.53
2022-10-18T06:38:04.147Z,21.44
2022-10-18T06:43:20.155Z,23.06
2022-10-18T06:53:44.373Z,22.79
2022-10-18T06:58:50.994Z,23.20
2022-10-18T07:03:54.366Z,23.45
2022-10-18T07:08:57.341Z,23.72
2022-10-18T07:14:03.316Z,23.15
2022-10-18T07:19:05.662Z,22.55
2022-10-18T07:24:07.862Z,22.84
2022-10-18T07:29:12.328Z,22.29
2022-10-18T07:34:14.733Z,22.83
2022-10-18T07:39:17.086Z,21.57
2022-10-18T07:44:19.229Z,22.02
2022-10-18T07:49:21.737Z,22.47
2022-10-18T07:54:24.134Z,22.62
2022-10-18T07:59:26.343Z,22.47
2022-10-18T08:04:28.541Z,22.32
2022-10-18T08:09:30.984Z,23.09
2022-10-18T08:14:33.054Z,22.90
2022-10-18T08:19:35.255Z,24.35
2022-10-18T08:24:37.681Z,24.46
2022-10-18T08:29:39.821Z,24.70
2022-10-18T08:34:42.379Z,24.14
2022-10-18T08:39:44.537Z,24.38
2022-10-18T08:44:52.051Z,24.91
2022-10-18T08:50:03.199Z,24.89
2022-10-18T08:55:18.848Z,24.98
2022-10-18T09:00:23.870Z,25.32
2022-10-18T09:05:44.908Z,25.21
2022-10-18T09:10:56.127Z,24.87
2022-10-18T09:16:19.888Z,25.73
2022-10-18T09:21:50.029Z,26.46
2022-10-18T09:27:05.663Z,26.51
2022-10-18T09:32:18.321Z,26.65
2022-10-18T09:37:23.374Z,26.92
2022-10-18T09:42:58.654Z,26.50
2022-10-18T09:48:22.544Z,26.75
2022-10-18T09:53:40.968Z,25.71
2022-10-18T09:58:44.843Z,25.79
2022-10-18T10:03:47.427Z,25.51
2022-10-18T10:08:55.570Z,25.20
2022-10-18T10:14:08.065Z,25.32
2022-10-18T10:19:18.781Z,25.66
2022-10-18T10:24:31.214Z,25.60
2022-10-18T10:29:45.884Z,24.58
2022-10-18T10:34:50.238Z,24.37
2022-10-18T10:40:21.260Z,24.16
2022-10-18T10:45:29.742Z,23.31
2022-10-18T10:55:39.398Z,22.42
2022-10-18T11:00:45.233Z,21.62
2022-10-18T11:05:50.362Z,21.34
2022-10-18T11:11:07.118Z,21.60
2022-10-18T11:16:25.095Z,20.70
2022-10-18T11:21:31.114Z,20.93
2022-10-18T11:27:00.847Z,20.78
2022-10-18T11:32:37.717Z,20.74
2022-10-18T11:38:06.368Z,20.51
2022-10-18T11:43:30.272Z,20.75
2022-10-18T11:49:10.766Z,20.03
2022-10-18T11:54:16.058Z,20.39
2022-10-18T11:59:40.093Z,20.22
2022-10-18T12:05:22.155Z,19.97
2022-10-18T12:10:31.538Z,19.69
2022-10-18T12:15:44.650Z,19.51
2022-10-18T12:20:50.634Z,19.42
2022-10-18T12:25:57.291Z,19.34
2022-10-18T12:31:15.051Z,19.42
2022-10-18T12:36:38.646Z,19.49
2022-10-18T12:41:40.926Z,19.49
2022-10-18T12:46:54.938Z,19.40
2022-10-18T12:52:03.730Z,19.40
2022-10-18T12:57:18.302Z,19.06
2022-10-18T13:02:25.216Z,19.19
2022-10-18T13:07:41.194Z,18.93
2022-10-18T13:13:38.283Z,18.68
2022-10-18T13:19:16.889Z,18.82
2022-10-18T13:24:44.498Z,18.50
2022-10-18T13:30:11.906Z,18.64
2022-10-18T13:35:49.982Z,18.67
2022-10-18T13:41:04.425Z,18.49
2022-10-18T13:46:06.916Z,18.41
2022-10-18T13:51:41.329Z,18.33
2022-10-18T13:57:17.755Z,17.96
2022-10-18T14:02:51.444Z,18.02
2022-10-18T14:08:10.294Z,17.63
2022-10-18T14:13:22.954Z,17.53
2022-10-18T14:18:36.799Z,17.52
2022-10-18T14:23:44.912Z,17.31
2022-10-18T14:29:16.356Z,17.05
2022-10-18T14:34:19.012Z,17.19
2022-10-18T14:39:26.794Z,16.96
2022-10-18T14:44:31.834Z,16.79
2022-10-18T14:49:34.610Z,16.20
2022-10-18T14:54:38.832Z,15.73
2022-10-18T14:59:57.514Z,15.77
2022-10-18T15:05:10.939Z,15.14
2022-10-18T15:10:18.341Z,14.91
2022-10-18T15:15:27.102Z,14.57
2022-10-18T15:20:36.066Z,14.09
2022-10-18T15:25:39.223Z,13.80
2022-10-18T15:30:43.506Z,13.23
2022-10-18T15:35:46.780Z,12.65
2022-10-18T15:40:50.811Z,12.11
2022-10-18T15:45:58.916Z,11.46
2022-10-18T15:51:28.350Z,11.00
2022-10-18T15:56:37.942Z,10.53
2022-10-18T16:01:45.111Z,10.29
2022-10-18T16:06:47.644Z,10.04
2022-10-18T16:11:55.796Z,10.37
2022-10-18T16:17:02.081Z,9.55
2022-10-18T16:22:06.825Z,9.70
2022-10-18T16:27:10.551Z,9.51
2022-10-18T16:32:12.803Z,9.51
2022-10-18T16:37:15.216Z,9.05
2022-10-18T16:42:17.337Z,8.90
2022-10-18T16:47:19.831Z,8.58
2022-10-18T16:52:21.935Z,8.48
2022-10-18T16:57:24.119Z,8.65
2022-10-18T17:02:26.500Z,8.47
2022-10-18T17:07:28.707Z,8.19
2022-10-18T17:12:31.058Z,7.64
2022-10-18T17:17:33.999Z,7.80
2022-10-18T17:22:36.431Z,7.35
2022-10-18T17:27:38.795Z,7.36
2022-10-18T17:32:44.553Z,7.07
2022-10-18T17:37:52.176Z,6.92
2022-10-18T17:42:54.720Z,6.41
2022-10-18T17:47:57.131Z,6.51
2022-10-18T17:52:59.339Z,6.56
2022-10-18T17:58:01.869Z,6.57
2022-10-18T18:03:04.754Z,6.13
2022-10-18T18:08:07.356Z,6.13
2022-10-18T18:13:09.611Z,5.77
2022-10-18T18:18:11.849Z,5.39
2022-10-18T18:23:14.462Z,5.69
2022-10-18T18:28:16.912Z,5.63
2022-10-18T18:33:19.120Z,5.33
2022-10-18T18:38:21.307Z,5.46
2022-10-18T18:43:23.751Z,5.06
2022-10-18T18:48:27.616Z,5.25
2022-10-18T18:53:30.479Z,5.22
2022-10-18T18:58:34.372Z,5.46
2022-10-18T19:03:38.623Z,4.88
2022-10-18T19:08:41.158Z,4.84
2022-10-18T19:13:43.412Z,4.48
2022-10-18T19:19:01.309Z,4.71
2022-10-18T19:24:04.889Z,4.69
2022-10-18T19:29:22.346Z,4.59
2022-10-18T19:34:26.314Z,4.42
2022-10-18T19:39:31.105Z,4.44
2022-10-18T19:44:36.177Z,4.37
2022-10-18T19:49:43.140Z,4.14
2022-10-18T19:54:45.431Z,4.26
2022-10-18T19:59:47.603Z,3.95
2022-10-18T20:04:49.696Z,4.00
2022-10-18T20:09:51.926Z,3.99
2022-10-18T20:14:54.184Z,3.87
2022-10-18T20:19:56.386Z,3.46
2022-10-18T20:24:58.558Z,3.48
2022-10-18T20:30:01.005Z,3.37
2022-10-18T20:35:03.254Z,3.25
2022-10-18T20:40:05.834Z,3.24
2022-10-18T20:45:09.749Z,3.32
2022-10-18T20:50:12.030Z,3.41
2022-10-18T20:55:14.274Z,3.20
2022-10-18T21:00:16.402Z,3.14
2022-10-18T21:05:18.707Z,2.85
2022-10-18T21:10:20.978Z,2.71
2022-10-18T21:15:23.207Z,3.06
2022-10-18T21:20:25.467Z,3.16
2022-10-18T21:25:27.644Z,2.75
2022-10-18T21:30:29.744Z,2.75
2022-10-18T21:35:35.798Z,2.59
2022-10-18T21:40:39.974Z,2.47
2022-10-18T21:45:42.209Z,2.29
2022-10-18T21:50:44.501Z,2.63
2022-10-18T21:55:48.464Z,2.64
2022-10-18T22:00:50.608Z,2.59
2022-10-18T22:06:03.711Z,2.22
2022-10-18T22:11:06.560Z,2.35
2022-10-18T22:16:11.187Z,2.24
2022-10-18T22:21:15.332Z,1.89
2022-10-18T22:26:25.327Z,2.12
2022-10-18T22:31:31.125Z,2.13
2022-10-18T22:36:34.350Z,1.95
2022-10-18T22:41:37.081Z,1.88
2022-10-18T22:46:40.492Z,2.29
2022-10-18T22:51:42.804Z,1.98
2022-10-18T22:56:45.210Z,1.95
2022-10-18T23:01:47.465Z,1.78
2022-10-18T23:06:49.630Z,1.72
2022-10-18T23:11:53.208Z,1.90
2022-10-18T23:16:55.558Z,1.72
2022-10-18T23:21:57.657Z,1.49
2022-10-18T23:26:59.733Z,1.48
2022-10-18T23:32:02.046Z,1.37
2022-10-18T23:37:04.360Z,1.43
2022-10-18T23:42:06.533Z,1.53
2022-10-18T23:47:08.631Z,1.55
2022-10-18T23:52:11.009Z,1.41
2022-10-18T23:57:13.354Z,1.46
